sensor_id;sensor_type;location;lat;lon;timestamp;temperature;humidity
59148;DHT22;44930;52.878;6.168;2023-04-01T00:01:25;9.80;99.90
59148;DHT22;44930;52.878;6.168;2023-04-01T00:03:51;10.00;99.90
59148;DHT22;44930;52.878;6.168;2023-04-01T00:06:18;9.90;99.90
59148;DHT22;44930;52.878;6.168;2023-04-01T00:08:44;10.00;99.90
59148;DHT22;44930;52.878;6.168;2023-04-01T00:11:10;10.00;99.90
59148;DHT22;44930;52.878;6.168;2023-04-01T00:13:36;10.00;99.90
59148;DHT22;44930;52.878;6.168;2023-04-01T00:16:02;10.00;99.90
59148;DHT22;44930;52.878;6.168;2023-04-01T00:18:29;9.90;99.90
59148;DHT22;44930;52.878;6.168;2023-04-01T00:20:55;10.00;99.90
59148;DHT22;44930;52.878;6.168;2023-04-01T00:23:20;9.80;99.90
59148;DHT22;44930;52.878;6.168;2023-04-01T00:25:47;10.00;99.90
59148;DHT22;44930;52.878;6.168;2023-04-01T00:28:14;9.70;99.90
59148;DHT22;44930;52.878;6.168;2023-04-01T00:30:40;10.10;99.90
59148;DHT22;44930;52.878;6.168;2023-04-01T00:33:06;9.90;99.90
59148;DHT22;44930;52.878;6.168;2023-04-01T00:35:32;9.90;99.90
59148;DHT22;44930;52.878;6.168;2023-04-01T00:37:58;9.80;99.90
59148;DHT22;44930;52.878;6.168;2023-04-01T00:40:36;10.00;99.90
59148;DHT22;44930;52.878;6.168;2023-04-01T00:43:02;10.00;99.90
59148;DHT22;44930;52.878;6.168;2023-04-01T00:45:37;10.00;99.90
59148;DHT22;44930;52.878;6.168;2023-04-01T00:48:23;9.70;99.90
59148;DHT22;44930;52.878;6.168;2023-04-01T00:51:09;10.10;99.90
59148;DHT22;44930;52.878;6.168;2023-04-01T00:53:38;10.00;99.90
59148;DHT22;44930;52.878;6.168;2023-04-01T00:56:12;9.90;99.90
59148;DHT22;44930;52.878;6.168;2023-04-01T00:58:41;9.80;99.90
59148;DHT22;44930;52.878;6.168;2023-04-01T01:01:08;9.90;99.90
59148;DHT22;44930;52.878;6.168;2023-04-01T01:03:34;10.00;99.90
59148;DHT22;44930;52.878;6.168;2023-04-01T01:14:32;9.60;99.90
59148;DHT22;44930;52.878;6.168;2023-04-01T01:17:08;10.30;99.90
59148;DHT22;44930;52.878;6.168;2023-04-01T01:22:42;9.80;99.90
59148;DHT22;44930;52.878;6.168;2023-04-01T01:25:48;10.00;99.90
59148;DHT22;44930;52.878;6.168;2023-04-01T01:28:53;9.70;99.90
59148;DHT22;44930;52.878;6.168;2023-04-01T01:34:25;9.90;99.90
59148;DHT22;44930;52.878;6.168;2023-04-01T01:36:59;9.80;99.90
59148;DHT22;44930;52.878;6.168;2023-04-01T01:39:29;9.90;99.90
59148;DHT22;44930;52.878;6.168;2023-04-01T01:41:57;10.20;99.90
59148;DHT22;44930;52.878;6.168;2023-04-01T01:44:27;9.90;99.90
59148;DHT22;44930;52.878;6.168;2023-04-01T01:46:55;9.80;99.90
59148;DHT22;44930;52.878;6.168;2023-04-01T01:49:22;9.80;99.90
59148;DHT22;44930;52.878;6.168;2023-04-01T01:51:48;9.80;99.90
59148;DHT22;44930;52.878;6.168;2023-04-01T01:54:18;9.90;99.90
59148;DHT22;44930;52.878;6.168;2023-04-01T01:56:50;9.70;99.90
59148;DHT22;44930;52.878;6.168;2023-04-01T01:59:18;9.90;99.90
59148;DHT22;44930;52.878;6.168;2023-04-01T02:01:48;10.00;99.90
59148;DHT22;44930;52.878;6.168;2023-04-01T02:04:16;9.80;99.90
59148;DHT22;44930;52.878;6.168;2023-04-01T02:06:49;10.20;99.90
59148;DHT22;44930;52.878;6.168;2023-04-01T02:09:18;9.90;99.90
59148;DHT22;44930;52.878;6.168;2023-04-01T02:11:51;10.00;99.90
59148;DHT22;44930;52.878;6.168;2023-04-01T02:14:20;9.90;99.90
59148;DHT22;44930;52.878;6.168;2023-04-01T02:17:00;10.00;99.90
59148;DHT22;44930;52.878;6.168;2023-04-01T02:19:38;10.00;99.90
59148;DHT22;44930;52.878;6.168;2023-04-01T02:22:10;10.00;99.90
59148;DHT22;44930;52.878;6.168;2023-04-01T02:24:38;10.00;99.90
59148;DHT22;44930;52.878;6.168;2023-04-01T02:27:05;9.90;99.90
59148;DHT22;44930;52.878;6.168;2023-04-01T02:29:30;10.00;99.90
59148;DHT22;44930;52.878;6.168;2023-04-01T02:31:57;10.00;99.90
59148;DHT22;44930;52.878;6.168;2023-04-01T02:34:24;10.00;99.90
59148;DHT22;44930;52.878;6.168;2023-04-01T02:36:51;10.00;99.90
59148;DHT22;44930;52.878;6.168;2023-04-01T02:39:17;10.00;99.90
59148;DHT22;44930;52.878;6.168;2023-04-01T02:41:44;10.00;99.90
59148;DHT22;44930;52.878;6.168;2023-04-01T02:44:11;9.90;99.90
59148;DHT22;44930;52.878;6.168;2023-04-01T02:46:38;10.00;99.90
59148;DHT22;44930;52.878;6.168;2023-04-01T02:49:03;10.00;99.90
59148;DHT22;44930;52.878;6.168;2023-04-01T02:51:29;10.10;99.90
59148;DHT22;44930;52.878;6.168;2023-04-01T02:53:55;9.90;99.90
59148;DHT22;44930;52.878;6.168;2023-04-01T02:56:20;10.00;99.90
59148;DHT22;44930;52.878;6.168;2023-04-01T02:58:46;10.10;99.90
59148;DHT22;44930;52.878;6.168;2023-04-01T03:01:12;10.00;99.90
59148;DHT22;44930;52.878;6.168;2023-04-01T03:03:38;10.00;99.90
59148;DHT22;44930;52.878;6.168;2023-04-01T03:06:08;9.90;99.90
59148;DHT22;44930;52.878;6.168;2023-04-01T03:08:34;9.90;99.90
59148;DHT22;44930;52.878;6.168;2023-04-01T03:11:00;10.10;99.90
59148;DHT22;44930;52.878;6.168;2023-04-01T03:13:25;10.00;99.90
59148;DHT22;44930;52.878;6.168;2023-04-01T03:15:51;9.90;99.90
59148;DHT22;44930;52.878;6.168;2023-04-01T03:18:17;10.00;99.90
59148;DHT22;44930;52.878;6.168;2023-04-01T03:20:43;10.10;99.90
59148;DHT22;44930;52.878;6.168;2023-04-01T03:23:08;9.90;99.90
59148;DHT22;44930;52.878;6.168;2023-04-01T03:25:34;9.90;99.90
59148;DHT22;44930;52.878;6.168;2023-04-01T03:28:00;10.00;99.90
59148;DHT22;44930;52.878;6.168;2023-04-01T03:30:26;9.90;99.90
59148;DHT22;44930;52.878;6.168;2023-04-01T03:32:52;9.90;99.90
59148;DHT22;44930;52.878;6.168;2023-04-01T03:35:17;10.10;99.90
59148;DHT22;44930;52.878;6.168;2023-04-01T03:37:43;9.90;99.90
59148;DHT22;44930;52.878;6.168;2023-04-01T03:40:09;9.90;99.90
59148;DHT22;44930;52.878;6.168;2023-04-01T03:42:35;9.90;99.90
59148;DHT22;44930;52.878;6.168;2023-04-01T03:45:01;10.00;99.90
59148;DHT22;44930;52.878;6.168;2023-04-01T03:47:28;9.90;99.90
59148;DHT22;44930;52.878;6.168;2023-04-01T03:49:53;9.90;99.90
59148;DHT22;44930;52.878;6.168;2023-04-01T03:52:19;9.90;99.90
59148;DHT22;44930;52.878;6.168;2023-04-01T03:54:45;9.90;99.90
59148;DHT22;44930;52.878;6.168;2023-04-01T03:57:10;9.90;99.90
59148;DHT22;44930;52.878;6.168;2023-04-01T03:59:36;9.90;99.90
59148;DHT22;44930;52.878;6.168;2023-04-01T04:02:01;9.90;99.90
59148;DHT22;44930;52.878;6.168;2023-04-01T04:04:27;9.80;99.90
59148;DHT22;44930;52.878;6.168;2023-04-01T04:06:53;10.00;99.90
59148;DHT22;44930;52.878;6.168;2023-04-01T04:09:19;9.90;99.90
59148;DHT22;44930;52.878;6.168;2023-04-01T04:11:45;10.00;99.90
59148;DHT22;44930;52.878;6.168;2023-04-01T04:14:10;9.90;99.90
59148;DHT22;44930;52.878;6.168;2023-04-01T04:16:36;9.70;99.90
59148;DHT22;44930;52.878;6.168;2023-04-01T04:19:03;9.80;99.90
59148;DHT22;44930;52.878;6.168;2023-04-01T04:21:29;9.90;99.90
59148;DHT22;44930;52.878;6.168;2023-04-01T04:23:54;9.90;99.90
59148;DHT22;44930;52.878;6.168;2023-04-01T04:26:20;9.90;99.90
59148;DHT22;44930;52.878;6.168;2023-04-01T04:28:45;10.10;99.90
59148;DHT22;44930;52.878;6.168;2023-04-01T04:31:11;9.90;99.90
59148;DHT22;44930;52.878;6.168;2023-04-01T04:33:37;9.90;99.90
59148;DHT22;44930;52.878;6.168;2023-04-01T04:36:03;10.10;99.90
59148;DHT22;44930;52.878;6.168;2023-04-01T04:38:29;10.20;99.90
59148;DHT22;44930;52.878;6.168;2023-04-01T04:40:55;9.90;99.90
59148;DHT22;44930;52.878;6.168;2023-04-01T04:45:47;10.00;99.90
59148;DHT22;44930;52.878;6.168;2023-04-01T04:48:14;9.90;99.90
59148;DHT22;44930;52.878;6.168;2023-04-01T04:50:47;9.90;99.90
59148;DHT22;44930;52.878;6.168;2023-04-01T04:55:47;9.90;99.90
59148;DHT22;44930;52.878;6.168;2023-04-01T04:58:13;10.00;99.90
59148;DHT22;44930;52.878;6.168;2023-04-01T05:00:39;9.90;99.90
59148;DHT22;44930;52.878;6.168;2023-04-01T05:03:04;9.90;99.90
59148;DHT22;44930;52.878;6.168;2023-04-01T05:05:30;9.90;99.90
59148;DHT22;44930;52.878;6.168;2023-04-01T05:07:55;9.80;99.90
59148;DHT22;44930;52.878;6.168;2023-04-01T05:10:21;9.60;99.90
59148;DHT22;44930;52.878;6.168;2023-04-01T05:12:47;9.90;99.90
59148;DHT22;44930;52.878;6.168;2023-04-01T05:15:12;9.90;99.90
59148;DHT22;44930;52.878;6.168;2023-04-01T05:17:38;9.70;99.90
59148;DHT22;44930;52.878;6.168;2023-04-01T05:20:04;9.90;99.90
59148;DHT22;44930;52.878;6.168;2023-04-01T05:22:30;9.90;99.90
59148;DHT22;44930;52.878;6.168;2023-04-01T05:24:55;10.00;99.90
59148;DHT22;44930;52.878;6.168;2023-04-01T05:27:21;9.80;99.90
59148;DHT22;44930;52.878;6.168;2023-04-01T05:29:47;9.80;99.90
59148;DHT22;44930;52.878;6.168;2023-04-01T05:32:12;9.80;99.90
59148;DHT22;44930;52.878;6.168;2023-04-01T05:34:38;9.90;99.90
59148;DHT22;44930;52.878;6.168;2023-04-01T05:37:04;9.80;99.90
59148;DHT22;44930;52.878;6.168;2023-04-01T05:39:29;9.80;99.90
59148;DHT22;44930;52.878;6.168;2023-04-01T05:41:55;9.80;99.90
59148;DHT22;44930;52.878;6.168;2023-04-01T05:44:20;9.80;99.90
59148;DHT22;44930;52.878;6.168;2023-04-01T05:49:12;9.90;99.90
59148;DHT22;44930;52.878;6.168;2023-04-01T05:51:38;9.80;99.90
59148;DHT22;44930;52.878;6.168;2023-04-01T05:54:05;9.90;99.90
59148;DHT22;44930;52.878;6.168;2023-04-01T05:56:30;10.20;99.90
59148;DHT22;44930;52.878;6.168;2023-04-01T05:58:56;9.90;99.90
59148;DHT22;44930;52.878;6.168;2023-04-01T06:01:21;9.90;99.90
59148;DHT22;44930;52.878;6.168;2023-04-01T06:06:24;9.90;99.90
59148;DHT22;44930;52.878;6.168;2023-04-01T06:08:52;10.00;99.90
59148;DHT22;44930;52.878;6.168;2023-04-01T06:17:06;10.00;99.90
59148;DHT22;44930;52.878;6.168;2023-04-01T06:22:54;10.00;99.90
59148;DHT22;44930;52.878;6.168;2023-04-01T06:25:36;10.00;99.90
59148;DHT22;44930;52.878;6.168;2023-04-01T06:30:44;9.80;99.90
59148;DHT22;44930;52.878;6.168;2023-04-01T06:33:43;10.20;99.90
59148;DHT22;44930;52.878;6.168;2023-04-01T06:44:57;10.00;99.90
59148;DHT22;44930;52.878;6.168;2023-04-01T06:50:34;9.70;99.90
59148;DHT22;44930;52.878;6.168;2023-04-01T06:55:57;10.30;99.90
59148;DHT22;44930;52.878;6.168;2023-04-01T06:58:50;10.40;99.90
59148;DHT22;44930;52.878;6.168;2023-04-01T07:01:41;10.10;99.90
59148;DHT22;44930;52.878;6.168;2023-04-01T07:04:26;9.90;99.90
59148;DHT22;44930;52.878;6.168;2023-04-01T07:06:56;10.10;99.90
59148;DHT22;44930;52.878;6.168;2023-04-01T07:09:26;10.10;99.90
59148;DHT22;44930;52.878;6.168;2023-04-01T07:11:58;10.10;99.90
59148;DHT22;44930;52.878;6.168;2023-04-01T07:14:36;10.10;99.90
59148;DHT22;44930;52.878;6.168;2023-04-01T07:17:23;10.10;99.90
59148;DHT22;44930;52.878;6.168;2023-04-01T07:19:59;10.10;99.90
59148;DHT22;44930;52.878;6.168;2023-04-01T07:22:40;10.30;99.90
59148;DHT22;44930;52.878;6.168;2023-04-01T07:25:22;10.20;99.90
59148;DHT22;44930;52.878;6.168;2023-04-01T07:27:53;10.10;99.90
59148;DHT22;44930;52.878;6.168;2023-04-01T07:30:22;10.00;99.90
59148;DHT22;44930;52.878;6.168;2023-04-01T07:35:30;10.20;99.90
59148;DHT22;44930;52.878;6.168;2023-04-01T07:38:28;10.20;99.90
59148;DHT22;44930;52.878;6.168;2023-04-01T07:41:30;10.20;99.90
59148;DHT22;44930;52.878;6.168;2023-04-01T07:44:08;9.90;99.90
59148;DHT22;44930;52.878;6.168;2023-04-01T07:49:17;10.20;99.90
59148;DHT22;44930;52.878;6.168;2023-04-01T07:57:27;10.20;99.90
59148;DHT22;44930;52.878;6.168;2023-04-01T08:13:21;9.70;99.90
59148;DHT22;44930;52.878;6.168;2023-04-01T08:21:28;10.10;99.90
59148;DHT22;44930;52.878;6.168;2023-04-01T08:24:04;10.10;99.90
59148;DHT22;44930;52.878;6.168;2023-04-01T08:26:37;10.00;99.90
59148;DHT22;44930;52.878;6.168;2023-04-01T08:29:16;10.10;99.90
59148;DHT22;44930;52.878;6.168;2023-04-01T08:34:37;10.20;99.90
59148;DHT22;44930;52.878;6.168;2023-04-01T08:37:15;10.30;99.90
59148;DHT22;44930;52.878;6.168;2023-04-01T08:39:58;10.00;99.90
59148;DHT22;44930;52.878;6.168;2023-04-01T08:42:49;10.00;99.90
59148;DHT22;44930;52.878;6.168;2023-04-01T08:45:39;10.40;99.90
59148;DHT22;44930;52.878;6.168;2023-04-01T08:48:37;10.10;99.90
59148;DHT22;44930;52.878;6.168;2023-04-01T08:54:04;10.30;99.90
59148;DHT22;44930;52.878;6.168;2023-04-01T08:56:42;10.40;99.90
59148;DHT22;44930;52.878;6.168;2023-04-01T08:59:19;10.40;99.90
59148;DHT22;44930;52.878;6.168;2023-04-01T09:16:49;10.50;99.90
59148;DHT22;44930;52.878;6.168;2023-04-01T09:25:05;10.50;99.90
59148;DHT22;44930;52.878;6.168;2023-04-01T09:27:44;10.60;99.90
59148;DHT22;44930;52.878;6.168;2023-04-01T09:30:32;10.50;99.90
59148;DHT22;44930;52.878;6.168;2023-04-01T09:35:56;10.70;99.90
59148;DHT22;44930;52.878;6.168;2023-04-01T09:41:31;10.70;99.90
59148;DHT22;44930;52.878;6.168;2023-04-01T09:44:23;10.50;99.90
59148;DHT22;44930;52.878;6.168;2023-04-01T09:49:42;10.40;99.90
59148;DHT22;44930;52.878;6.168;2023-04-01T09:52:38;11.00;99.90
59148;DHT22;44930;52.878;6.168;2023-04-01T09:55:38;11.10;99.90
59148;DHT22;44930;52.878;6.168;2023-04-01T09:58:16;10.80;99.90
59148;DHT22;44930;52.878;6.168;2023-04-01T10:04:14;11.10;99.90
59148;DHT22;44930;52.878;6.168;2023-04-01T10:12:50;11.30;99.90
59148;DHT22;44930;52.878;6.168;2023-04-01T10:23:28;11.60;99.90
59148;DHT22;44930;52.878;6.168;2023-04-01T10:32:11;11.20;99.90
59148;DHT22;44930;52.878;6.168;2023-04-01T10:51:38;11.20;99.90
59148;DHT22;44930;52.878;6.168;2023-04-01T10:57:55;11.30;99.90
59148;DHT22;44930;52.878;6.168;2023-04-01T11:14:45;11.00;99.90
59148;DHT22;44930;52.878;6.168;2023-04-01T11:17:42;10.70;99.90
59148;DHT22;44930;52.878;6.168;2023-04-01T11:25:50;11.10;99.90
59148;DHT22;44930;52.878;6.168;2023-04-01T11:34:16;10.50;99.90
59148;DHT22;44930;52.878;6.168;2023-04-01T11:37:06;11.00;99.90
59148;DHT22;44930;52.878;6.168;2023-04-01T11:45:35;10.20;99.90
59148;DHT22;44930;52.878;6.168;2023-04-01T11:48:24;10.70;99.90
59148;DHT22;44930;52.878;6.168;2023-04-01T12:04:54;10.60;99.90
59148;DHT22;44930;52.878;6.168;2023-04-01T12:07:42;10.60;99.90
59148;DHT22;44930;52.878;6.168;2023-04-01T12:10:44;10.60;99.90
59148;DHT22;44930;52.878;6.168;2023-04-01T12:13:36;10.60;99.90
59148;DHT22;44930;52.878;6.168;2023-04-01T12:17:08;10.80;99.90
59148;DHT22;44930;52.878;6.168;2023-04-01T12:19:48;10.80;99.90
59148;DHT22;44930;52.878;6.168;2023-04-01T12:33:43;10.60;99.90
59148;DHT22;44930;52.878;6.168;2023-04-01T12:42:05;10.80;99.90
59148;DHT22;44930;52.878;6.168;2023-04-01T12:50:28;10.90;99.90
59148;DHT22;44930;52.878;6.168;2023-04-01T12:56:02;10.90;99.90
59148;DHT22;44930;52.878;6.168;2023-04-01T12:59:05;10.80;99.90
59148;DHT22;44930;52.878;6.168;2023-04-01T13:04:51;10.70;99.90
59148;DHT22;44930;52.878;6.168;2023-04-01T13:23:54;10.40;99.90
59148;DHT22;44930;52.878;6.168;2023-04-01T13:31:53;10.50;99.90
59148;DHT22;44930;52.878;6.168;2023-04-01T13:37:25;10.50;99.90
59148;DHT22;44930;52.878;6.168;2023-04-01T13:40:26;10.10;99.90
59148;DHT22;44930;52.878;6.168;2023-04-01T13:43:31;10.30;99.90
59148;DHT22;44930;52.878;6.168;2023-04-01T13:49:05;9.90;99.90
59148;DHT22;44930;52.878;6.168;2023-04-01T13:54:45;10.10;99.90
59148;DHT22;44930;52.878;6.168;2023-04-01T14:05:38;10.00;99.90
59148;DHT22;44930;52.878;6.168;2023-04-01T14:22:22;9.80;99.90
59148;DHT22;44930;52.878;6.168;2023-04-01T14:25:54;9.70;99.90
59148;DHT22;44930;52.878;6.168;2023-04-01T14:28:12;9.80;99.90
59148;DHT22;44930;52.878;6.168;2023-04-01T14:36:00;9.60;99.90
59148;DHT22;44930;52.878;6.168;2023-04-01T14:38:46;9.90;99.90
59148;DHT22;44930;52.878;6.168;2023-04-01T14:41:17;9.60;99.90
59148;DHT22;44930;52.878;6.168;2023-04-01T14:43:48;9.50;99.90
59148;DHT22;44930;52.878;6.168;2023-04-01T14:49:24;9.30;99.90
59148;DHT22;44930;52.878;6.168;2023-04-01T14:51:56;9.60;99.90
59148;DHT22;44930;52.878;6.168;2023-04-01T14:54:37;9.20;99.90
59148;DHT22;44930;52.878;6.168;2023-04-01T14:57:12;9.40;99.90
59148;DHT22;44930;52.878;6.168;2023-04-01T14:59:49;9.40;99.90
59148;DHT22;44930;52.878;6.168;2023-04-01T15:05:04;9.30;99.90
59148;DHT22;44930;52.878;6.168;2023-04-01T15:19:21;9.70;99.90
59148;DHT22;44930;52.878;6.168;2023-04-01T15:22:13;9.40;99.90
59148;DHT22;44930;52.878;6.168;2023-04-01T15:25:19;9.30;99.90
59148;DHT22;44930;52.878;6.168;2023-04-01T15:39:09;9.40;99.90
59148;DHT22;44930;52.878;6.168;2023-04-01T15:49:56;9.30;99.90
59148;DHT22;44930;52.878;6.168;2023-04-01T15:52:34;9.20;99.90
59148;DHT22;44930;52.878;6.168;2023-04-01T15:55:27;9.50;99.90
59148;DHT22;44930;52.878;6.168;2023-04-01T16:00:30;9.20;99.90
59148;DHT22;44930;52.878;6.168;2023-04-01T16:13:24;9.10;99.90
59148;DHT22;44930;52.878;6.168;2023-04-01T16:27:04;8.90;99.90
59148;DHT22;44930;52.878;6.168;2023-04-01T16:35:18;8.70;99.90
59148;DHT22;44930;52.878;6.168;2023-04-01T16:37:56;8.70;99.90
59148;DHT22;44930;52.878;6.168;2023-04-01T16:40:58;8.60;99.90
59148;DHT22;44930;52.878;6.168;2023-04-01T16:43:38;8.70;99.90
59148;DHT22;44930;52.878;6.168;2023-04-01T16:49:04;8.60;99.90
59148;DHT22;44930;52.878;6.168;2023-04-01T16:54:18;8.60;99.90
59148;DHT22;44930;52.878;6.168;2023-04-01T16:57:02;8.50;99.90
59148;DHT22;44930;52.878;6.168;2023-04-01T16:59:37;8.20;99.90
59148;DHT22;44930;52.878;6.168;2023-04-01T17:02:16;8.50;99.90
59148;DHT22;44930;52.878;6.168;2023-04-01T17:04:54;8.40;99.90
59148;DHT22;44930;52.878;6.168;2023-04-01T17:07:46;8.40;99.90
59148;DHT22;44930;52.878;6.168;2023-04-01T17:10:42;8.50;99.90
59148;DHT22;44930;52.878;6.168;2023-04-01T17:27:05;8.20;99.90
59148;DHT22;44930;52.878;6.168;2023-04-01T17:29:59;8.20;99.90
59148;DHT22;44930;52.878;6.168;2023-04-01T17:35:26;8.00;99.90
59148;DHT22;44930;52.878;6.168;2023-04-01T17:46:29;8.10;99.90
59148;DHT22;44930;52.878;6.168;2023-04-01T17:54:25;7.80;99.90
59148;DHT22;44930;52.878;6.168;2023-04-01T17:59:38;7.60;99.90
59148;DHT22;44930;52.878;6.168;2023-04-01T18:02:38;8.10;99.90
59148;DHT22;44930;52.878;6.168;2023-04-01T18:05:30;7.70;99.90
59148;DHT22;44930;52.878;6.168;2023-04-01T18:25:05;7.50;99.90
59148;DHT22;44930;52.878;6.168;2023-04-01T18:27:07;7.50;99.90
59148;DHT22;44930;52.878;6.168;2023-04-01T18:32:18;7.60;99.90
59148;DHT22;44930;52.878;6.168;2023-04-01T18:35:21;7.50;99.90
59148;DHT22;44930;52.878;6.168;2023-04-01T18:40:35;7.40;99.90
59148;DHT22;44930;52.878;6.168;2023-04-01T18:48:41;7.30;99.90
59148;DHT22;44930;52.878;6.168;2023-04-01T18:51:21;7.30;99.90
59148;DHT22;44930;52.878;6.168;2023-04-01T18:56:33;7.10;99.90
59148;DHT22;44930;52.878;6.168;2023-04-01T18:59:08;7.10;99.90
59148;DHT22;44930;52.878;6.168;2023-04-01T19:01:52;7.20;99.90
59148;DHT22;44930;52.878;6.168;2023-04-01T19:07:00;7.00;99.90
59148;DHT22;44930;52.878;6.168;2023-04-01T19:09:31;7.30;99.90
59148;DHT22;44930;52.878;6.168;2023-04-01T19:25:58;7.00;99.90
59148;DHT22;44930;52.878;6.168;2023-04-01T19:33:50;7.00;99.90
59148;DHT22;44930;52.878;6.168;2023-04-01T19:36:26;7.00;99.90
59148;DHT22;44930;52.878;6.168;2023-04-01T19:42:21;7.00;99.90
59148;DHT22;44930;52.878;6.168;2023-04-01T19:50:26;7.00;99.90
59148;DHT22;44930;52.878;6.168;2023-04-01T19:52:56;6.90;99.90
59148;DHT22;44930;52.878;6.168;2023-04-01T19:55:36;6.90;99.90
59148;DHT22;44930;52.878;6.168;2023-04-01T20:00:53;7.20;99.90
59148;DHT22;44930;52.878;6.168;2023-04-01T20:03:40;6.70;99.90
59148;DHT22;44930;52.878;6.168;2023-04-01T20:06:09;7.00;99.90
59148;DHT22;44930;52.878;6.168;2023-04-01T20:08:45;6.70;99.90
59148;DHT22;44930;52.878;6.168;2023-04-01T20:11:35;6.90;99.90
59148;DHT22;44930;52.878;6.168;2023-04-01T20:16:56;6.80;99.90
59148;DHT22;44930;52.878;6.168;2023-04-01T20:19:40;6.90;99.90
59148;DHT22;44930;52.878;6.168;2023-04-01T20:22:31;6.80;99.90
59148;DHT22;44930;52.878;6.168;2023-04-01T20:25:27;6.70;99.90
59148;DHT22;44930;52.878;6.168;2023-04-01T20:36:05;6.80;99.90
59148;DHT22;44930;52.878;6.168;2023-04-01T20:43:51;6.60;99.90
59148;DHT22;44930;52.878;6.168;2023-04-01T20:46:37;6.80;99.90
59148;DHT22;44930;52.878;6.168;2023-04-01T20:58:12;6.40;99.90
59148;DHT22;44930;52.878;6.168;2023-04-01T21:06:35;6.40;99.90
59148;DHT22;44930;52.878;6.168;2023-04-01T21:09:13;6.50;99.90
59148;DHT22;44930;52.878;6.168;2023-04-01T21:22:06;6.20;99.90
59148;DHT22;44930;52.878;6.168;2023-04-01T21:38:37;6.00;99.90
59148;DHT22;44930;52.878;6.168;2023-04-01T21:44:19;6.20;99.90
59148;DHT22;44930;52.878;6.168;2023-04-01T21:50:06;6.10;99.90
59148;DHT22;44930;52.878;6.168;2023-04-01T22:00:52;6.10;99.90
59148;DHT22;44930;52.878;6.168;2023-04-01T22:09:02;6.10;99.90
59148;DHT22;44930;52.878;6.168;2023-04-01T22:14:25;6.10;99.90
59148;DHT22;44930;52.878;6.168;2023-04-01T22:19:54;6.20;99.90
59148;DHT22;44930;52.878;6.168;2023-04-01T22:28:46;6.50;99.90
59148;DHT22;44930;52.878;6.168;2023-04-01T22:31:21;6.00;99.90
59148;DHT22;44930;52.878;6.168;2023-04-01T22:42:01;6.00;99.90
59148;DHT22;44930;52.878;6.168;2023-04-01T22:44:40;6.00;99.90
59148;DHT22;44930;52.878;6.168;2023-04-01T22:52:33;5.90;99.90
59148;DHT22;44930;52.878;6.168;2023-04-01T22:55:08;5.80;99.90
59148;DHT22;44930;52.878;6.168;2023-04-01T22:57:38;5.90;99.90
59148;DHT22;44930;52.878;6.168;2023-04-01T23:00:07;5.90;99.90
59148;DHT22;44930;52.878;6.168;2023-04-01T23:02:40;5.90;99.90
59148;DHT22;44930;52.878;6.168;2023-04-01T23:05:12;5.90;99.90
59148;DHT22;44930;52.878;6.168;2023-04-01T23:07:45;5.50;99.90
59148;DHT22;44930;52.878;6.168;2023-04-01T23:15:27;5.80;99.90
59148;DHT22;44930;52.878;6.168;2023-04-01T23:21:00;5.80;99.90
59148;DHT22;44930;52.878;6.168;2023-04-01T23:26:52;5.70;99.90
59148;DHT22;44930;52.878;6.168;2023-04-01T23:29:19;5.70;99.90
59148;DHT22;44930;52.878;6.168;2023-04-01T23:32:13;5.60;99.90
59148;DHT22;44930;52.878;6.168;2023-04-01T23:34:35;5.70;99.90
59148;DHT22;44930;52.878;6.168;2023-04-01T23:37:10;5.60;99.90
59148;DHT22;44930;52.878;6.168;2023-04-01T23:39:40;5.80;99.90
59148;DHT22;44930;52.878;6.168;2023-04-01T23:42:38;5.60;99.90
59148;DHT22;44930;52.878;6.168;2023-04-01T23:45:15;5.70;99.90
59148;DHT22;44930;52.878;6.168;2023-04-01T23:47:43;5.50;99.90
59148;DHT22;44930;52.878;6.168;2023-04-01T23:50:16;5.30;99.90
59148;DHT22;44930;52.878;6.168;2023-04-01T23:52:47;5.40;99.90
59148;DHT22;44930;52.878;6.168;2023-04-01T23:55:28;5.40;99.90
